Observation data for Slaton on 12/09/2018      Previous  Date       Current Mesonet Observations  Soil Data  Daily Summary Page  Observations in Plain Language
KSLS 090600Z 29009KT M06/M07 A303 RMK A01 T10611069  RH  095%=      5-min Rain = 0
KSLS 090605Z 29009KT M06/M07 A303 RMK A01 T10641071  RH  095%=      5-min Rain = 0
KSLS 090610Z 30008KT M07/M07 A303 RMK A01 T10671074  RH  095%=      5-min Rain = 0
KSLS 090615Z 30008KT M07/M08 A303 RMK A01 T10701078  RH  095%=      5-min Rain = 0
KSLS 090620Z 29008KT M07/M08 A303 RMK A01 T10731082  RH  094%=      5-min Rain = 0
KSLS 090625Z 29008KT M08/M08 A303 RMK A01 T10751084  RH  095%=      5-min Rain = 0
KSLS 090630Z 28007KT M07/M08 A303 RMK A01 T10731080  RH  095%=      5-min Rain = 0
KSLS 090635Z 29007KT M08/M09 A303 RMK A01 T10751085  RH  094%=      5-min Rain = 0
KSLS 090640Z 29006KT M08/M09 A303 RMK A01 T10771087  RH  094%=      5-min Rain = 0
KSLS 090645Z 30004KT M08/M09 A303 RMK A01 T10771086  RH  094%=      5-min Rain = 0
KSLS 090650Z 33002KT M07/M08 A303 RMK A01 T10741082  RH  095%=      5-min Rain = 0
KSLS 090655Z 31004KT M07/M08 A303 RMK A01 T10721080  RH  095%=      5-min Rain = 0
KSLS 090700Z 30004KT M08/M09 A303 RMK A01 T10791089  RH  093%=      5-min Rain = 0
KSLS 090705Z 29006KT M08/M09 A303 RMK A01 T10811092  RH  093%=      5-min Rain = 0
KSLS 090710Z 29007KT M08/M09 A303 RMK A01 T10791088  RH  094%=      5-min Rain = 0
KSLS 090715Z 30005KT M08/M09 A303 RMK A01 T10781087  RH  094%=      5-min Rain = 0
KSLS 090720Z 30004KT M08/M09 A303 RMK A01 T10811092  RH  093%=      5-min Rain = 0
KSLS 090725Z 31003KT M08/M09 A303 RMK A01 T10821093  RH  093%=      5-min Rain = 0
KSLS 090730Z 33002KT M08/M09 A3029 RMK A01 T10821093  RH  093%=      5-min Rain = 0
KSLS 090735Z 31004KT M08/M09 A303 RMK A01 T10821092  RH  094%=      5-min Rain = 0
KSLS 090740Z 31003KT M08/M09 A3029 RMK A01 T10841094  RH  094%=      5-min Rain = 0
KSLS 090745Z 33002KT M08/M09 A3029 RMK A01 T10811088  RH  095%=      5-min Rain = 0
KSLS 090750Z 31004KT M08/M09 A3029 RMK A01 T10781085  RH  096%=      5-min Rain = 0
KSLS 090755Z 31005KT M08/M08 A3029 RMK A01 T10761084  RH  096%=      5-min Rain = 0
KSLS 090800Z 30005KT M08/M08 A3029 RMK A01 T10761084  RH  095%=      5-min Rain = 0
KSLS 090805Z 31004KT M08/M09 A3029 RMK A01 T10761085  RH  095%=      5-min Rain = 0
KSLS 090810Z 30004KT M08/M09 A3029 RMK A01 T10761085  RH  095%=      5-min Rain = 0
KSLS 090815Z 29004KT M08/M09 A3029 RMK A01 T10781087  RH  094%=      5-min Rain = 0
KSLS 090820Z 30003KT M08/M09 A3029 RMK A01 T10791089  RH  094%=      5-min Rain = 0
KSLS 090825Z 30002KT M08/M09 A3029 RMK A01 T10801090  RH  094%=      5-min Rain = 0
KSLS 090830Z 30003KT M08/M09 A3029 RMK A01 T10801090  RH  094%=      5-min Rain = 0
KSLS 090835Z 31004KT M08/M09 A3029 RMK A01 T10801089  RH  094%=      5-min Rain = 0
KSLS 090840Z 32003KT M08/M09 A3029 RMK A01 T10801089  RH  094%=      5-min Rain = 0
KSLS 090845Z 31003KT M08/M09 A3029 RMK A01 T10801090  RH  094%=      5-min Rain = 0
KSLS 090850Z 31003KT M08/M09 A3029 RMK A01 T10811091  RH  094%=      5-min Rain = 0
KSLS 090855Z 31002KT M08/M09 A3029 RMK A01 T10831093  RH  093%=      5-min Rain = 0
KSLS 090900Z 31002KT M08/M09 A3029 RMK A01 T10841094  RH  093%=      5-min Rain = 0
KSLS 090905Z 32002KT M08/M09 A3029 RMK A01 T10841094  RH  093%=      5-min Rain = 0
KSLS 090910Z 30003KT M08/M09 A3029 RMK A01 T10831094  RH  094%=      5-min Rain = 0
KSLS 090915Z 31003KT M09/M10 A3029 RMK A01 T10851095  RH  093%=      5-min Rain = 0
KSLS 090920Z 31003KT M09/M10 A3029 RMK A01 T10851096  RH  093%=      5-min Rain = 0
KSLS 090925Z 31003KT M09/M10 A3029 RMK A01 T10871098  RH  093%=      5-min Rain = 0
KSLS 090930Z 32002KT M09/M10 A3029 RMK A01 T10881098  RH  093%=      5-min Rain = 0
KSLS 090935Z 34001KT M09/M10 A3029 RMK A01 T10881097  RH  094%=      5-min Rain = 0
KSLS 090940Z 35002KT M09/M10 A3029 RMK A01 T10871096  RH  094%=      5-min Rain = 0
KSLS 090945Z 35003KT M09/M10 A3029 RMK A01 T10881097  RH  094%=      5-min Rain = 0
KSLS 090950Z 35002KT M09/M10 A3029 RMK A01 T10891098  RH  094%=      5-min Rain = 0
KSLS 090955Z 34002KT M09/M10 A3029 RMK A01 T10881097  RH  094%=      5-min Rain = 0
KSLS 091000Z 35003KT M09/M10 A3029 RMK A01 T10871096  RH  094%=      5-min Rain = 0
KSLS 091005Z 33002KT M09/M10 A3029 RMK A01 T10871096  RH  094%=      5-min Rain = 0
KSLS 091010Z 31001KT M09/M10 A3029 RMK A01 T10891100  RH  093%=      5-min Rain = 0
KSLS 091015Z 34002KT M09/M10 A3029 RMK A01 T10901101  RH  093%=      5-min Rain = 0
KSLS 091020Z 35002KT M09/M10 A3029 RMK A01 T10901100  RH  094%=      5-min Rain = 0
KSLS 091025Z 34003KT M09/M10 A3029 RMK A01 T10911101  RH  093%=      5-min Rain = 0
KSLS 091030Z 34001KT M09/M10 A3029 RMK A01 T10911101  RH  094%=      5-min Rain = 0
KSLS 091035Z 35001KT M09/M10 A3029 RMK A01 T10911102  RH  093%=      5-min Rain = 0
KSLS 091040Z 35003KT M09/M10 A3029 RMK A01 T10901100  RH  094%=      5-min Rain = 0
KSLS 091045Z 34003KT M09/M10 A3029 RMK A01 T10881097  RH  095%=      5-min Rain = 0
KSLS 091050Z 34004KT M09/M09 A3029 RMK A01 T10851094  RH  095%=      5-min Rain = 0
KSLS 091055Z 34005KT M08/M09 A3029 RMK A01 T10831091  RH  095%=      5-min Rain = 0
KSLS 091100Z 34004KT M08/M09 A3029 RMK A01 T10831091  RH  095%=      5-min Rain = 0
KSLS 091105Z 33003KT M08/M09 A3029 RMK A01 T10841094  RH  094%=      5-min Rain = 0
KSLS 091110Z 33000KT M09/M10 A3029 RMK A01 T10851095  RH  094%=      5-min Rain = 0
KSLS 091115Z 30001KT M09/M10 A303 RMK A01 T10861097  RH  093%=      5-min Rain = 0
KSLS 091120Z 32003KT M09/M10 A303 RMK A01 T10871099  RH  093%=      5-min Rain = 0
KSLS 091125Z 33003KT M09/M10 A303 RMK A01 T10851095  RH  094%=      5-min Rain = 0
KSLS 091130Z 31003KT M09/M10 A303 RMK A01 T10861096  RH  093%=      5-min Rain = 0
KSLS 091135Z 30003KT M09/M10 A303 RMK A01 T10911104  RH  092%=      5-min Rain = 0
KSLS 091140Z 29003KT M10/M11 A303 RMK A01 T10951108  RH  092%=      5-min Rain = 0
KSLS 091145Z 29003KT M10/M11 A3031 RMK A01 T10961108  RH  092%=      5-min Rain = 0
KSLS 091150Z 29004KT M10/M11 A3031 RMK A01 T10961108  RH  092%=      5-min Rain = 0
KSLS 091155Z 28003KT M09/M11 A3031 RMK A01 T10941106  RH  093%=      5-min Rain = 0
KSLS 091200Z 29003KT M09/M11 A3031 RMK A01 T10941106  RH  092%=      5-min Rain = 0
KSLS 091205Z 29003KT M09/M11 A3031 RMK A01 T10941106  RH  092%=      5-min Rain = 0
KSLS 091210Z 30003KT M10/M11 A3031 RMK A01 T10951108  RH  092%=      5-min Rain = 0
KSLS 091215Z 30003KT M10/M11 A3032 RMK A01 T10971110  RH  091%=      5-min Rain = 0
KSLS 091220Z 31003KT M09/M10 A3032 RMK A01 T10931104  RH  093%=      5-min Rain = 0
KSLS 091225Z 30002KT M09/M10 A3032 RMK A01 T10921104  RH  092%=      5-min Rain = 0
KSLS 091230Z 29003KT M10/M11 A3032 RMK A01 T10971111  RH  091%=      5-min Rain = 0
KSLS 091235Z 28003KT M10/M11 A3032 RMK A01 T10971110  RH  092%=      5-min Rain = 0
KSLS 091240Z 27003KT M10/M11 A3032 RMK A01 T10981110  RH  092%=      5-min Rain = 0
KSLS 091245Z 28004KT M10/M11 A3032 RMK A01 T10971109  RH  092%=      5-min Rain = 0
KSLS 091250Z 29004KT M10/M11 A3032 RMK A01 T10961108  RH  092%=      5-min Rain = 0
KSLS 091255Z 30003KT M09/M11 A3033 RMK A01 T10941106  RH  092%=      5-min Rain = 0
KSLS 091300Z 28003KT M10/M11 A3033 RMK A01 T10951108  RH  092%=      5-min Rain = 0
KSLS 091305Z 26002KT M10/M11 A3033 RMK A01 T10971110  RH  091%=      5-min Rain = 0
KSLS 091310Z 28002KT M10/M11 A3033 RMK A01 T10971109  RH  092%=      5-min Rain = 0
KSLS 091315Z 28002KT M10/M11 A3034 RMK A01 T10981111  RH  091%=      5-min Rain = 0
KSLS 091320Z 30002KT M10/M11 A3034 RMK A01 T10991112  RH  091%=      5-min Rain = 0
KSLS 091325Z 30003KT M10/M11 A3034 RMK A01 T10961108  RH  092%=      5-min Rain = 0
KSLS 091330Z 28001KT M10/M11 A3034 RMK A01 T10961109  RH  092%=      5-min Rain = 0
KSLS 091335Z 28002KT M10/M11 A3034 RMK A01 T10981111  RH  092%=      5-min Rain = 0
KSLS 091340Z 29002KT M10/M12 A3034 RMK A01 T11011115  RH  091%=      5-min Rain = 0
KSLS 091345Z 30003KT M10/M11 A3034 RMK A01 T11001112  RH  092%=      5-min Rain = 0
KSLS 091350Z 31003KT M10/M11 A3034 RMK A01 T10971109  RH  092%=      5-min Rain = 0
KSLS 091355Z 31004KT M10/M11 A3034 RMK A01 T10951108  RH  092%=      5-min Rain = 0
KSLS 091400Z 30005KT M09/M11 A3035 RMK A01 T10941107  RH  091%=      5-min Rain = 0
KSLS 091405Z 30006KT M10/M11 A3035 RMK A01 T10951110  RH  090%=      5-min Rain = 0
KSLS 091410Z 30006KT M10/M11 A3035 RMK A01 T10971113  RH  090%=      5-min Rain = 0
KSLS 091415Z 29006KT M10/M11 A3035 RMK A01 T10971112  RH  090%=      5-min Rain = 0
KSLS 091420Z 30005KT M09/M11 A3035 RMK A01 T10921106  RH  091%=      5-min Rain = 0
KSLS 091425Z 30005KT M09/M11 A3035 RMK A01 T10901105  RH  090%=      5-min Rain = 0
KSLS 091430Z 31003KT M09/M10 A3036 RMK A01 T10881103  RH  090%=      5-min Rain = 0
KSLS 091435Z 32002KT M08/M10 A3036 RMK A01 T10831097  RH  091%=      5-min Rain = 0
KSLS 091440Z 33003KT M08/M09 A3036 RMK A01 T10791092  RH  091%=      5-min Rain = 0
KSLS 091445Z 33002KT M07/M09 A3036 RMK A01 T10731085  RH  092%=      5-min Rain = 0
KSLS 091450Z 00002KT M07/M08 A3037 RMK A01 T10701082  RH  092%=      5-min Rain = 0
KSLS 091455Z 35003KT M07/M08 A3037 RMK A01 T10691082  RH  092%=      5-min Rain = 0
KSLS 091500Z 35002KT M07/M08 A3037 RMK A01 T10661078  RH  092%=      5-min Rain = 0
KSLS 091505Z 35002KT M06/M07 A3037 RMK A01 T10621074  RH  092%=      5-min Rain = 0
KSLS 091510Z 36003KT M06/M07 A3037 RMK A01 T10591072  RH  092%=      5-min Rain = 0
KSLS 091515Z 34003KT M06/M07 A3037 RMK A01 T10591072  RH  091%=      5-min Rain = 0
KSLS 091520Z 34003KT M06/M07 A3038 RMK A01 T10581072  RH  091%=      5-min Rain = 0
KSLS 091525Z 34003KT M06/M07 A3038 RMK A01 T10571071  RH  091%=      5-min Rain = 0
KSLS 091530Z 33003KT M06/M07 A3038 RMK A01 T10551069  RH  091%=      5-min Rain = 0
KSLS 091535Z 34004KT M05/M07 A3038 RMK A01 T10541068  RH  091%=      5-min Rain = 0
KSLS 091540Z 35003KT M05/M07 A3039 RMK A01 T10521066  RH  091%=      5-min Rain = 0
KSLS 091545Z 35003KT M05/M07 A3039 RMK A01 T10511065  RH  091%=      5-min Rain = 0
KSLS 091550Z 33003KT M05/M06 A3039 RMK A01 T10501064  RH  091%=      5-min Rain = 0
KSLS 091555Z 32002KT M05/M06 A304 RMK A01 T10481063  RH  090%=      5-min Rain = 0
KSLS 091600Z 33003KT M05/M06 A304 RMK A01 T10461061  RH  090%=      5-min Rain = 0
KSLS 091605Z 33002KT M04/M06 A304 RMK A01 T10431058  RH  090%=      5-min Rain = 0
KSLS 091610Z 32003KT M04/M06 A304 RMK A01 T10421058  RH  090%=      5-min Rain = 0
KSLS 091615Z 30003KT M04/M06 A304 RMK A01 T10441061  RH  089%=      5-min Rain = 0
KSLS 091620Z 29004KT M04/M06 A304 RMK A01 T10431060  RH  089%=      5-min Rain = 0
KSLS 091625Z 28003KT M04/M06 A304 RMK A01 T10421059  RH  089%=      5-min Rain = 0
KSLS 091630Z 27003KT M04/M06 A304 RMK A01 T10421059  RH  089%=      5-min Rain = 0
KSLS 091635Z 27003KT M04/M06 A304 RMK A01 T10401057  RH  089%=      5-min Rain = 0
KSLS 091640Z 27002KT M04/M05 A304 RMK A01 T10381054  RH  089%=      5-min Rain = 0
KSLS 091645Z 27002KT M04/M05 A304 RMK A01 T10351052  RH  089%=      5-min Rain = 0
KSLS 091650Z 27002KT M03/M05 A304 RMK A01 T10331049  RH  089%=      5-min Rain = 0
KSLS 091655Z 28002KT M03/M05 A304 RMK A01 T10301047  RH  089%=      5-min Rain = 0
KSLS 091700Z 28003KT M03/M05 A304 RMK A01 T10291046  RH  089%=      5-min Rain = 0
KSLS 091705Z 28003KT M03/M05 A304 RMK A01 T10281045  RH  089%=      5-min Rain = 0
KSLS 091710Z 28004KT M03/M04 A304 RMK A01 T10271044  RH  089%=      5-min Rain = 0
KSLS 091715Z 30005KT M03/M04 A304 RMK A01 T10261043  RH  089%=      5-min Rain = 0
KSLS 091720Z 30006KT M03/M04 A304 RMK A01 T10251042  RH  090%=      5-min Rain = 0
KSLS 091725Z 31006KT M02/M04 A304 RMK A01 T10241040  RH  090%=      5-min Rain = 0
KSLS 091730Z 30006KT M02/M04 A304 RMK A01 T10221038  RH  090%=      5-min Rain = 0
KSLS 091735Z 29006KT M02/M04 A3039 RMK A01 T10211037  RH  090%=      5-min Rain = 0
KSLS 091740Z 30006KT M02/M04 A3039 RMK A01 T10201036  RH  090%=      5-min Rain = 0
KSLS 091745Z 30004KT M02/M03 A3039 RMK A01 T10171034  RH  090%=      5-min Rain = 0
KSLS 091750Z 32003KT M01/M03 A3039 RMK A01 T10121029  RH  089%=      5-min Rain = 0
KSLS 091755Z 32004KT M01/M03 A3038 RMK A01 T10101029  RH  088%=      5-min Rain = 0
KSLS 091800Z 31004KT M01/M03 A3038 RMK A01 T10111029  RH  088%=      5-min Rain = 0
KSLS 091805Z 31004KT M01/M03 A3038 RMK A01 T10121029  RH  089%=      5-min Rain = 0
KSLS 091810Z 31004KT M01/M03 A3038 RMK A01 T10111029  RH  089%=      5-min Rain = 0
KSLS 091815Z 30003KT M01/M03 A3038 RMK A01 T10081026  RH  089%=      5-min Rain = 0
KSLS 091820Z 30004KT M01/M03 A3037 RMK A01 T10071025  RH  088%=      5-min Rain = 0
KSLS 091825Z 29004KT M01/M02 A3037 RMK A01 T10051024  RH  088%=      5-min Rain = 0
KSLS 091830Z 28003KT M00/M02 A3037 RMK A01 T10021021  RH  088%=      5-min Rain = 0
KSLS 091835Z 28004KT M00/M02 A3036 RMK A01 T10021023  RH  086%=      5-min Rain = 0
KSLS 091840Z 29004KT M00/M02 A3036 RMK A01 T10021022  RH  087%=      5-min Rain = 0
KSLS 091845Z 29004KT M00/M02 A3036 RMK A01 T10011022  RH  087%=      5-min Rain = 0
KSLS 091850Z 28004KT 00/02 A3036 RMK A01 T00-00-21  RH  087%=      5-min Rain = 0
KSLS 091855Z 29005KT 00/M02 A3036 RMK A01 T00011021  RH  086%=      5-min Rain = 0
KSLS 091900Z 29005KT 00/M02 A3036 RMK A01 T00011022  RH  085%=      5-min Rain = 0
KSLS 091905Z 29004KT 00/M02 A3036 RMK A01 T00031021  RH  085%=      5-min Rain = 0
KSLS 091910Z 29004KT 01/M02 A3035 RMK A01 T00051020  RH  084%=      5-min Rain = 0
KSLS 091915Z 29004KT 01/M02 A3035 RMK A01 T00051023  RH  083%=      5-min Rain = 0
KSLS 091920Z 29003KT 01/M02 A3035 RMK A01 T00081021  RH  082%=      5-min Rain = 0
KSLS 091925Z 30004KT 01/M02 A3035 RMK A01 T00091020  RH  082%=      5-min Rain = 0
KSLS 091930Z 30004KT 01/M02 A3035 RMK A01 T00091023  RH  081%=      5-min Rain = 0
KSLS 091935Z 30004KT 01/M02 A3035 RMK A01 T00101022  RH  080%=      5-min Rain = 0
KSLS 091940Z 30005KT 01/M02 A3035 RMK A01 T00111022  RH  080%=      5-min Rain = 0
KSLS 091945Z 30004KT 01/M02 A3035 RMK A01 T00121023  RH  079%=      5-min Rain = 0
KSLS 091950Z 29004KT 01/M02 A3035 RMK A01 T00131021  RH  079%=      5-min Rain = 0
KSLS 091955Z 30004KT 01/M03 A3035 RMK A01 T00131025  RH  077%=      5-min Rain = 0
KSLS 092000Z 29004KT 01/M02 A3035 RMK A01 T00141024  RH  077%=      5-min Rain = 0
KSLS 092005Z 29004KT 01/M02 A3034 RMK A01 T00141024  RH  077%=      5-min Rain = 0
KSLS 092010Z 30004KT 02/M02 A3034 RMK A01 T00161022  RH  077%=      5-min Rain = 0
KSLS 092015Z 30004KT 02/M02 A3034 RMK A01 T00181023  RH  075%=      5-min Rain = 0
KSLS 092020Z 30004KT 02/M02 A3034 RMK A01 T00181024  RH  075%=      5-min Rain = 0
KSLS 092025Z 29004KT 02/M03 A3034 RMK A01 T00181025  RH  074%=      5-min Rain = 0
KSLS 092030Z 29004KT 02/M03 A3034 RMK A01 T00191026  RH  073%=      5-min Rain = 0
KSLS 092035Z 29004KT 02/M03 A3034 RMK A01 T00191026  RH  073%=      5-min Rain = 0
KSLS 092040Z 29003KT 02/M03 A3034 RMK A01 T00201027  RH  072%=      5-min Rain = 0
KSLS 092045Z 29003KT 02/M03 A3034 RMK A01 T00201028  RH  071%=      5-min Rain = 0
KSLS 092050Z 29003KT 02/M03 A3034 RMK A01 T00211028  RH  071%=      5-min Rain = 0
KSLS 092055Z 28004KT 02/M03 A3034 RMK A01 T00211027  RH  071%=      5-min Rain = 0
KSLS 092100Z 28004KT 02/M03 A3034 RMK A01 T00211028  RH  071%=      5-min Rain = 0
KSLS 092105Z 28003KT 02/M03 A3034 RMK A01 T00241028  RH  069%=      5-min Rain = 0
KSLS 092110Z 28003KT 03/M03 A3034 RMK A01 T00261029  RH  068%=      5-min Rain = 0
KSLS 092115Z 29003KT 03/M03 A3034 RMK A01 T00261028  RH  068%=      5-min Rain = 0
KSLS 092120Z 32003KT 03/M03 A3034 RMK A01 T00271029  RH  068%=      5-min Rain = 0
KSLS 092125Z 32002KT 03/M03 A3034 RMK A01 T00291033  RH  065%=      5-min Rain = 0
KSLS 092130Z 33003KT 03/M03 A3034 RMK A01 T00291033  RH  064%=      5-min Rain = 0
KSLS 092135Z 34002KT 03/M04 A3034 RMK A01 T00311036  RH  062%=      5-min Rain = 0
KSLS 092140Z 33002KT 03/M04 A3034 RMK A01 T00311037  RH  062%=      5-min Rain = 0
KSLS 092145Z 31002KT 03/M04 A3034 RMK A01 T00301037  RH  062%=      5-min Rain = 0
KSLS 092150Z 29002KT 03/M03 A3034 RMK A01 T00301029  RH  066%=      5-min Rain = 0
KSLS 092155Z 28003KT 03/M03 A3034 RMK A01 T00261027  RH  068%=      5-min Rain = 0
KSLS 092200Z 29004KT 02/M03 A3034 RMK A01 T00241030  RH  068%=      5-min Rain = 0
KSLS 092205Z 30004KT 02/M03 A3034 RMK A01 T00231031  RH  068%=      5-min Rain = 0
KSLS 092210Z 32003KT 02/M03 A3034 RMK A01 T00241034  RH  067%=      5-min Rain = 0
KSLS 092215Z 31004KT 02/M03 A3034 RMK A01 T00231034  RH  066%=      5-min Rain = 0
KSLS 092220Z 32003KT 02/M03 A3034 RMK A01 T00231033  RH  067%=      5-min Rain = 0
KSLS 092225Z 32003KT 02/M03 A3034 RMK A01 T00231031  RH  068%=      5-min Rain = 0
KSLS 092230Z 32003KT 02/M03 A3034 RMK A01 T00241032  RH  067%=      5-min Rain = 0
KSLS 092235Z 32003KT 02/M03 A3034 RMK A01 T00231032  RH  067%=      5-min Rain = 0
KSLS 092240Z 32002KT 02/M03 A3034 RMK A01 T00221032  RH  068%=      5-min Rain = 0
KSLS 092245Z 31002KT 02/M03 A3034 RMK A01 T00231031  RH  068%=      5-min Rain = 0
KSLS 092250Z 30003KT 02/M03 A3034 RMK A01 T00201030  RH  070%=      5-min Rain = 0
KSLS 092255Z 30003KT 02/M03 A3034 RMK A01 T00181028  RH  073%=      5-min Rain = 0
KSLS 092300Z 30004KT 02/M03 A3035 RMK A01 T00151027  RH  074%=      5-min Rain = 0
KSLS 092305Z 30004KT 01/M03 A3035 RMK A01 T00141031  RH  073%=      5-min Rain = 0
KSLS 092310Z 30004KT 01/M03 A3035 RMK A01 T00121030  RH  074%=      5-min Rain = 0
KSLS 092315Z 30004KT 01/M03 A3034 RMK A01 T00091032  RH  075%=      5-min Rain = 0
KSLS 092320Z 30004KT 01/M03 A3034 RMK A01 T00091031  RH  075%=      5-min Rain = 0
KSLS 092325Z 30004KT 01/M03 A3034 RMK A01 T00091032  RH  075%=      5-min Rain = 0
KSLS 092330Z 30005KT 01/M03 A3034 RMK A01 T00061034  RH  075%=      5-min Rain = 0
KSLS 092335Z 31005KT 00/M04 A3034 RMK A01 T00031035  RH  076%=      5-min Rain = 0
KSLS 092340Z 30005KT M00/M04 A3034 RMK A01 T10031036  RH  079%=      5-min Rain = 0
KSLS 092345Z 30005KT M01/M04 A3034 RMK A01 T10091043  RH  079%=      5-min Rain = 0
KSLS 092350Z 29005KT M01/M05 A3034 RMK A01 T10131045  RH  080%=      5-min Rain = 0
KSLS 092355Z 30005KT M01/M05 A3034 RMK A01 T10121045  RH  079%=      5-min Rain = 0
KSLS 100000Z 29005KT M01/M05 A3034 RMK A01 T10111045  RH  078%=      5-min Rain = 0
KSLS 100005Z 29005KT M01/M05 A3034 RMK A01 T10121045  RH  079%=      5-min Rain = 0
KSLS 100010Z 29005KT M01/M04 A3034 RMK A01 T10091044  RH  078%=      5-min Rain = 0
KSLS 100015Z 30005KT M00/M04 A3034 RMK A01 T10031044  RH  075%=      5-min Rain = 0
KSLS 100020Z 30005KT M00/M04 A3034 RMK A01 T10041042  RH  076%=      5-min Rain = 0
KSLS 100025Z 29005KT M01/M04 A3034 RMK A01 T10051044  RH  076%=      5-min Rain = 0
KSLS 100030Z 29005KT M01/M04 A3034 RMK A01 T10071044  RH  077%=      5-min Rain = 0
KSLS 100035Z 29005KT M01/M05 A3034 RMK A01 T10111045  RH  079%=      5-min Rain = 0
KSLS 100040Z 28005KT M02/M05 A3034 RMK A01 T10161049  RH  079%=      5-min Rain = 0
KSLS 100045Z 27004KT M02/M05 A3034 RMK A01 T10201049  RH  081%=      5-min Rain = 0
KSLS 100050Z 26005KT M02/M05 A3034 RMK A01 T10211048  RH  083%=      5-min Rain = 0
KSLS 100055Z 26005KT M02/M05 A3035 RMK A01 T10241049  RH  084%=      5-min Rain = 0
KSLS 100100Z 26005KT M03/M06 A3034 RMK A01 T10301055  RH  084%=      5-min Rain = 0
KSLS 100105Z 26004KT M04/M06 A3034 RMK A01 T10351055  RH  087%=      5-min Rain = 0
KSLS 100110Z 26005KT M03/M05 A3034 RMK A01 T10301052  RH  086%=      5-min Rain = 0
KSLS 100115Z 27005KT M03/M06 A3034 RMK A01 T10341058  RH  085%=      5-min Rain = 0
KSLS 100120Z 27005KT M04/M06 A3035 RMK A01 T10381060  RH  085%=      5-min Rain = 0
KSLS 100125Z 28005KT M04/M06 A3035 RMK A01 T10421062  RH  087%=      5-min Rain = 0
KSLS 100130Z 28005KT M04/M06 A3035 RMK A01 T10431061  RH  088%=      5-min Rain = 0
KSLS 100135Z 27005KT M05/M06 A3036 RMK A01 T10451064  RH  088%=      5-min Rain = 0
KSLS 100140Z 27006KT M05/M06 A3036 RMK A01 T10451061  RH  090%=      5-min Rain = 0
KSLS 100145Z 27007KT M04/M06 A3036 RMK A01 T10381055  RH  089%=      5-min Rain = 0
KSLS 100150Z 28008KT M03/M05 A3036 RMK A01 T10331052  RH  087%=      5-min Rain = 0
KSLS 100155Z 28008KT M03/M05 A3036 RMK A01 T10311053  RH  086%=      5-min Rain = 0
KSLS 100200Z 28007KT M03/M06 A3036 RMK A01 T10331055  RH  086%=      5-min Rain = 0
KSLS 100205Z 29007KT M04/M06 A3036 RMK A01 T10371058  RH  086%=      5-min Rain = 0
KSLS 100210Z 30008KT M04/M06 A3036 RMK A01 T10371056  RH  088%=      5-min Rain = 0
KSLS 100215Z 30007KT M03/M05 A3037 RMK A01 T10331052  RH  088%=      5-min Rain = 0
KSLS 100220Z 30007KT M03/M05 A3037 RMK A01 T10321054  RH  086%=      5-min Rain = 0
KSLS 100225Z 29007KT M04/M06 A3037 RMK A01 T10371058  RH  087%=      5-min Rain = 0
KSLS 100230Z 29007KT M04/M06 A3037 RMK A01 T10381058  RH  087%=      5-min Rain = 0
KSLS 100235Z 29008KT M04/M06 A3037 RMK A01 T10381058  RH  087%=      5-min Rain = 0
KSLS 100240Z 29008KT M04/M06 A3037 RMK A01 T10351057  RH  086%=      5-min Rain = 0
KSLS 100245Z 29009KT M04/M06 A3037 RMK A01 T10361060  RH  085%=      5-min Rain = 0
KSLS 100250Z 29009KT M04/M06 A3037 RMK A01 T10361059  RH  085%=      5-min Rain = 0
KSLS 100255Z 29009KT M04/M06 A3037 RMK A01 T10381059  RH  086%=      5-min Rain = 0
KSLS 100300Z 29009KT M04/M06 A3037 RMK A01 T10391058  RH  087%=      5-min Rain = 0
KSLS 100305Z 29009KT M04/M06 A3037 RMK A01 T10391058  RH  088%=      5-min Rain = 0
KSLS 100310Z 29009KT M04/M06 A3037 RMK A01 T10391058  RH  087%=      5-min Rain = 0
KSLS 100315Z 29009KT M04/M06 A3037 RMK A01 T10361057  RH  087%=      5-min Rain = 0
KSLS 100320Z 29009KT M04/M06 A3037 RMK A01 T10381058  RH  087%=      5-min Rain = 0
KSLS 100325Z 29010KT M04/M06 A3037 RMK A01 T10361058  RH  086%=      5-min Rain = 0
KSLS 100330Z 29011KT M04/M06 A3037 RMK A01 T10361059  RH  085%=      5-min Rain = 0
KSLS 100335Z 29010KT M04/M06 A3037 RMK A01 T10371059  RH  086%=      5-min Rain = 0
KSLS 100340Z 29011KT M04/M06 A3037 RMK A01 T10391059  RH  087%=      5-min Rain = 0
KSLS 100345Z 29011KT M04/M06 A3037 RMK A01 T10361056  RH  087%=      5-min Rain = 0
KSLS 100350Z 29011KT M03/M06 A3037 RMK A01 T10321055  RH  086%=      5-min Rain = 0
KSLS 100355Z 29011KT M03/M06 A3037 RMK A01 T10301055  RH  084%=      5-min Rain = 0
KSLS 100400Z 29010KT M03/M06 A3037 RMK A01 T10321057  RH  084%=      5-min Rain = 0
KSLS 100405Z 29010KT M04/M06 A3038 RMK A01 T10361059  RH  085%=      5-min Rain = 0
KSLS 100410Z 29011KT M04/M06 A3038 RMK A01 T10381061  RH  085%=      5-min Rain = 0
KSLS 100415Z 29011KT M04/M06 A3038 RMK A01 T10391061  RH  086%=      5-min Rain = 0
KSLS 100420Z 29010KT M04/M06 A3038 RMK A01 T10421063  RH  086%=      5-min Rain = 0
KSLS 100425Z 29010KT M04/M06 A3037 RMK A01 T10441064  RH  087%=      5-min Rain = 0
KSLS 100430Z 29010KT M05/M06 A3037 RMK A01 T10451064  RH  087%=      5-min Rain = 0
KSLS 100435Z 29010KT M04/M06 A3038 RMK A01 T10431061  RH  088%=      5-min Rain = 0
KSLS 100440Z 29010KT M04/M06 A3037 RMK A01 T10401058  RH  089%=      5-min Rain = 0
KSLS 100445Z 30011KT M04/M06 A3038 RMK A01 T10371055  RH  088%=      5-min Rain = 0
KSLS 100450Z 30009KT M04/M06 A3038 RMK A01 T10371058  RH  087%=      5-min Rain = 0
KSLS 100455Z 30008KT M04/M06 A3038 RMK A01 T10421062  RH  087%=      5-min Rain = 0
KSLS 100500Z 29008KT M05/M06 A3038 RMK A01 T10451063  RH  088%=      5-min Rain = 0
KSLS 100505Z 29010KT M05/M06 A3038 RMK A01 T10451062  RH  089%=      5-min Rain = 0
KSLS 100510Z 28010KT M04/M06 A3038 RMK A01 T10411058  RH  089%=      5-min Rain = 0
KSLS 100515Z 28010KT M04/M06 A3038 RMK A01 T10381055  RH  089%=      5-min Rain = 0
KSLS 100520Z 27010KT M04/M05 A3037 RMK A01 T10371054  RH  089%=      5-min Rain = 0
KSLS 100525Z 28010KT M04/M05 A3037 RMK A01 T10351051  RH  090%=      5-min Rain = 0
KSLS 100530Z 28010KT M04/M05 A3037 RMK A01 T10351051  RH  090%=      5-min Rain = 0
KSLS 100535Z 28010KT M04/M05 A3037 RMK A01 T10361052  RH  090%=      5-min Rain = 0
KSLS 100540Z 28010KT M04/M05 A3038 RMK A01 T10381052  RH  091%=      5-min Rain = 0
KSLS 100545Z 28009KT M04/M06 A3038 RMK A01 T10431057  RH  091%=      5-min Rain = 0
KSLS 100550Z 28009KT M05/M06 A3037 RMK A01 T10461059  RH  092%=      5-min Rain = 0
KSLS 100555Z 28009KT M05/M06 A3037 RMK A01 T10471059  RH  092%=      5-min Rain = 0

Page generated in 0.0099 seconds.